createdAt,value
2017-07-26T00:01:20.231Z,13.77
2017-07-26T00:03:47.885Z,13.77
2017-07-26T00:06:15.550Z,13.78
2017-07-26T00:08:43.179Z,13.80
2017-07-26T00:11:10.812Z,13.81
2017-07-26T00:13:38.441Z,13.81
2017-07-26T00:16:06.117Z,13.83
2017-07-26T00:18:33.758Z,13.82
2017-07-26T00:21:01.422Z,13.84
2017-07-26T00:23:29.065Z,13.86
2017-07-26T00:25:56.743Z,13.86
2017-07-26T00:28:24.353Z,13.86
2017-07-26T00:30:52.233Z,13.88
2017-07-26T00:33:19.866Z,13.88
2017-07-26T00:35:47.498Z,13.91
2017-07-26T00:38:15.105Z,13.90
2017-07-26T00:40:42.768Z,13.87
2017-07-26T00:43:10.384Z,13.87
2017-07-26T00:45:38.023Z,13.89
2017-07-26T00:48:05.628Z,13.91
2017-07-26T00:50:33.260Z,13.90
2017-07-26T00:53:00.893Z,13.89
2017-07-26T00:55:28.757Z,13.88
2017-07-26T00:57:56.358Z,13.86
2017-07-26T01:00:23.986Z,13.88
2017-07-26T01:02:51.654Z,13.87
2017-07-26T01:05:19.239Z,13.88
2017-07-26T01:07:46.863Z,13.84
2017-07-26T01:10:14.560Z,13.84
2017-07-26T01:12:42.219Z,13.83
2017-07-26T01:15:09.822Z,13.80
2017-07-26T01:17:37.499Z,13.79
2017-07-26T01:20:05.130Z,13.78
2017-07-26T01:22:32.803Z,13.77
2017-07-26T01:25:00.449Z,13.74
2017-07-26T01:27:28.095Z,13.73
2017-07-26T01:29:55.751Z,13.73
2017-07-26T01:32:23.421Z,13.73
2017-07-26T01:34:51.047Z,13.69
2017-07-26T01:37:18.698Z,13.68
2017-07-26T01:39:46.476Z,13.68
2017-07-26T01:42:14.228Z,13.65
2017-07-26T01:44:41.853Z,13.66
2017-07-26T01:47:09.505Z,13.66
2017-07-26T01:49:37.158Z,13.67
2017-07-26T01:52:04.820Z,13.66
2017-07-26T01:54:32.466Z,13.66
2017-07-26T01:57:00.708Z,13.65
2017-07-26T01:59:28.372Z,13.65
2017-07-26T02:01:56.023Z,13.67
2017-07-26T02:04:23.726Z,13.66
2017-07-26T02:06:51.415Z,13.66
2017-07-26T02:09:19.048Z,13.64
2017-07-26T02:11:46.710Z,13.65
2017-07-26T02:14:14.347Z,13.66
2017-07-26T02:16:41.996Z,13.64
2017-07-26T02:19:09.638Z,13.65
2017-07-26T02:21:37.305Z,13.64
2017-07-26T02:24:04.943Z,13.62
2017-07-26T02:26:32.869Z,13.60
2017-07-26T02:29:00.533Z,13.59
2017-07-26T02:31:28.189Z,13.59
2017-07-26T02:33:55.863Z,13.59
2017-07-26T02:36:23.620Z,13.57
2017-07-26T02:38:51.251Z,13.58
2017-07-26T02:41:18.849Z,13.59
2017-07-26T02:43:46.535Z,13.59
2017-07-26T02:46:14.200Z,13.58
2017-07-26T02:48:41.990Z,13.57
2017-07-26T02:51:09.644Z,13.56
2017-07-26T02:53:37.322Z,13.58
2017-07-26T02:56:04.940Z,13.58
2017-07-26T02:58:32.588Z,13.59
2017-07-26T03:01:00.189Z,13.60
2017-07-26T03:03:27.836Z,13.60
2017-07-26T03:05:55.466Z,13.61
2017-07-26T03:08:23.097Z,13.62
2017-07-26T03:10:50.731Z,13.63
2017-07-26T03:13:18.415Z,13.64
2017-07-26T03:15:46.050Z,13.66
2017-07-26T03:18:13.681Z,13.66
2017-07-26T03:20:42.650Z,13.69
2017-07-26T03:23:10.315Z,13.69
2017-07-26T03:25:37.950Z,13.70
2017-07-26T03:28:05.585Z,13.69
2017-07-26T03:30:33.224Z,13.68
2017-07-26T03:33:00.865Z,13.67
2017-07-26T03:35:28.484Z,13.67
2017-07-26T03:37:56.135Z,13.66
2017-07-26T03:40:23.772Z,13.67
2017-07-26T03:42:51.389Z,13.69
2017-07-26T03:45:19.013Z,13.67
2017-07-26T03:47:46.654Z,13.65
2017-07-26T03:50:14.267Z,13.62
2017-07-26T03:52:41.898Z,13.66
2017-07-26T03:55:09.532Z,13.68
2017-07-26T03:57:37.693Z,13.68
2017-07-26T04:00:05.305Z,13.64
2017-07-26T04:02:32.964Z,13.65
2017-07-26T04:05:00.655Z,13.68
2017-07-26T04:07:28.282Z,13.69
2017-07-26T04:09:55.951Z,13.70
2017-07-26T04:12:23.598Z,13.71
2017-07-26T04:14:51.239Z,13.70
2017-07-26T04:17:18.856Z,13.71
2017-07-26T04:19:46.557Z,13.69
2017-07-26T04:22:14.191Z,13.73
2017-07-26T04:24:41.911Z,13.72
2017-07-26T04:27:09.529Z,13.72
2017-07-26T04:29:37.242Z,13.73
2017-07-26T04:32:04.884Z,13.76
2017-07-26T04:34:32.552Z,13.77
2017-07-26T04:37:00.271Z,13.78
2017-07-26T04:39:27.909Z,13.81
2017-07-26T04:41:55.543Z,13.80
2017-07-26T04:44:23.168Z,13.81
2017-07-26T04:46:50.778Z,13.85
2017-07-26T04:49:18.423Z,13.88
2017-07-26T04:51:46.268Z,13.91
2017-07-26T04:54:13.918Z,13.96
2017-07-26T04:56:41.541Z,13.99
2017-07-26T04:59:09.189Z,13.97
2017-07-26T05:01:36.873Z,13.96
2017-07-26T05:04:04.511Z,13.96
2017-07-26T05:06:32.148Z,13.94
2017-07-26T05:08:59.791Z,13.94
2017-07-26T05:11:27.466Z,13.97
2017-07-26T05:13:55.122Z,13.96
2017-07-26T05:16:22.756Z,13.97
2017-07-26T05:18:50.407Z,13.99
2017-07-26T05:21:18.119Z,14.01
2017-07-26T05:23:45.771Z,14.04
2017-07-26T05:26:13.401Z,14.02
2017-07-26T05:28:41.045Z,14.03
2017-07-26T05:31:08.748Z,14.04
2017-07-26T05:33:36.544Z,14.03
2017-07-26T05:36:04.171Z,14.10
2017-07-26T05:38:31.807Z,14.13
2017-07-26T05:40:59.884Z,14.21
2017-07-26T05:43:30.500Z,14.28
2017-07-26T05:45:58.165Z,14.36
2017-07-26T05:48:25.902Z,14.38
2017-07-26T05:50:53.556Z,14.40
2017-07-26T05:53:21.173Z,14.42
2017-07-26T05:55:48.842Z,14.43
2017-07-26T05:58:16.479Z,14.47
2017-07-26T06:00:44.148Z,14.50
2017-07-26T06:03:11.794Z,14.54
2017-07-26T06:05:40.248Z,14.53
2017-07-26T06:08:07.916Z,14.50
2017-07-26T06:10:35.596Z,14.51
2017-07-26T06:13:03.230Z,14.51
2017-07-26T06:15:30.904Z,14.57
2017-07-26T06:17:58.644Z,14.62
2017-07-26T06:20:26.297Z,14.65
2017-07-26T06:22:53.915Z,14.68
2017-07-26T06:25:21.584Z,14.68
2017-07-26T06:27:49.259Z,14.73
2017-07-26T06:30:17.094Z,14.83
2017-07-26T06:32:44.769Z,14.90
2017-07-26T06:35:12.419Z,14.98
2017-07-26T06:37:40.059Z,14.97
2017-07-26T06:40:08.924Z,15.04
2017-07-26T06:42:36.586Z,15.07
2017-07-26T06:45:04.457Z,15.02
2017-07-26T06:47:32.091Z,15.05
2017-07-26T06:49:59.746Z,15.13
2017-07-26T06:52:27.409Z,15.20
2017-07-26T06:54:55.107Z,15.14
2017-07-26T06:57:22.743Z,15.11
2017-07-26T06:59:50.407Z,15.08
2017-07-26T07:02:18.123Z,15.16
2017-07-26T07:04:45.779Z,15.09
2017-07-26T07:07:13.428Z,15.03
2017-07-26T07:09:41.096Z,14.98
2017-07-26T07:12:08.734Z,14.96
2017-07-26T07:14:36.371Z,14.93
2017-07-26T07:17:04.011Z,14.87
2017-07-26T07:19:31.638Z,14.80
2017-07-26T07:21:59.390Z,14.82
2017-07-26T07:24:27.108Z,14.77
2017-07-26T07:26:54.779Z,14.76
2017-07-26T07:29:22.417Z,14.77
2017-07-26T07:31:50.050Z,14.73
2017-07-26T07:34:17.701Z,14.67
2017-07-26T07:36:45.385Z,14.63
2017-07-26T07:39:13.016Z,14.58
2017-07-26T07:41:40.663Z,14.54
2017-07-26T07:44:08.308Z,14.49
2017-07-26T07:46:35.978Z,14.43
2017-07-26T07:49:03.636Z,14.43
2017-07-26T07:51:31.299Z,14.33
2017-07-26T07:53:58.945Z,14.25
2017-07-26T07:56:26.614Z,14.26
2017-07-26T07:58:54.572Z,14.24
2017-07-26T08:01:22.243Z,14.24
2017-07-26T08:03:49.874Z,14.20
2017-07-26T08:06:17.551Z,14.14
2017-07-26T08:08:45.192Z,14.12
2017-07-26T08:11:12.869Z,14.09
2017-07-26T08:13:40.508Z,14.05
2017-07-26T08:16:08.171Z,14.04
2017-07-26T08:18:35.824Z,14.01
2017-07-26T08:21:03.483Z,14.02
2017-07-26T08:23:31.107Z,13.99
2017-07-26T08:25:59.105Z,13.93
2017-07-26T08:28:26.714Z,13.96
2017-07-26T08:30:54.469Z,14.00
2017-07-26T08:33:23.545Z,14.01
2017-07-26T08:35:51.190Z,14.03
2017-07-26T08:38:18.918Z,14.07
2017-07-26T08:40:47.522Z,14.07
2017-07-26T08:43:15.332Z,14.06
2017-07-26T08:45:43.607Z,14.09
2017-07-26T08:48:11.257Z,14.13
2017-07-26T08:50:38.906Z,14.15
2017-07-26T08:53:06.620Z,14.18
2017-07-26T08:55:34.279Z,14.22
2017-07-26T08:58:03.321Z,14.25
2017-07-26T09:00:30.947Z,14.27
2017-07-26T09:02:58.635Z,14.30
2017-07-26T09:05:26.269Z,14.30
2017-07-26T09:07:53.909Z,14.32
2017-07-26T09:10:21.552Z,14.32
2017-07-26T09:12:49.567Z,14.31
2017-07-26T09:15:18.572Z,14.29
2017-07-26T09:17:46.227Z,14.29
2017-07-26T09:20:16.486Z,14.31
2017-07-26T09:22:44.581Z,14.35
2017-07-26T09:25:12.427Z,14.36
2017-07-26T09:27:40.211Z,14.38
2017-07-26T09:30:07.863Z,14.39
2017-07-26T09:32:36.997Z,14.39
2017-07-26T09:35:04.663Z,14.38
2017-07-26T09:37:32.383Z,14.42
2017-07-26T09:40:00.027Z,14.42
2017-07-26T09:42:27.677Z,14.42
2017-07-26T09:44:55.304Z,14.46
2017-07-26T09:47:22.970Z,14.48
2017-07-26T09:49:50.615Z,14.47
2017-07-26T09:52:18.848Z,14.51
2017-07-26T09:54:47.099Z,14.52
2017-07-26T09:57:14.721Z,14.55
2017-07-26T09:59:42.577Z,14.57
2017-07-26T10:02:10.601Z,14.59
2017-07-26T10:04:38.325Z,14.57
2017-07-26T10:07:05.954Z,14.52
2017-07-26T10:09:33.595Z,14.57
2017-07-26T10:12:01.219Z,14.55
2017-07-26T10:14:28.905Z,14.60
2017-07-26T10:16:56.515Z,14.65
2017-07-26T10:19:24.408Z,14.71
2017-07-26T10:21:52.044Z,14.72
2017-07-26T10:24:19.708Z,14.74
2017-07-26T10:26:47.322Z,14.74
2017-07-26T10:29:14.970Z,14.77
2017-07-26T10:31:42.637Z,14.77
2017-07-26T10:34:10.411Z,14.75
2017-07-26T10:36:38.032Z,14.79
2017-07-26T10:39:05.709Z,14.81
2017-07-26T10:41:33.329Z,14.74
2017-07-26T10:44:01.024Z,14.73
2017-07-26T10:46:28.683Z,14.71
2017-07-26T10:48:56.815Z,14.73
2017-07-26T10:51:24.444Z,14.74
2017-07-26T10:53:52.115Z,14.73
2017-07-26T10:56:19.838Z,14.68
2017-07-26T10:58:47.508Z,14.70
2017-07-26T11:01:15.153Z,14.75
2017-07-26T11:03:42.788Z,14.80
2017-07-26T11:06:10.631Z,14.79
2017-07-26T11:08:38.288Z,14.76
2017-07-26T11:11:05.919Z,14.76
2017-07-26T11:13:33.586Z,14.75
2017-07-26T11:16:01.362Z,14.76
2017-07-26T11:18:29.048Z,14.73
2017-07-26T11:20:56.684Z,14.77
2017-07-26T11:23:24.466Z,14.80
2017-07-26T11:25:52.108Z,14.80
2017-07-26T11:28:19.765Z,14.80
2017-07-26T11:30:47.415Z,14.83
2017-07-26T11:33:15.360Z,14.83
2017-07-26T11:35:43.045Z,14.92
2017-07-26T11:38:10.671Z,14.91
2017-07-26T11:40:38.367Z,14.94
2017-07-26T11:43:06.027Z,14.97
2017-07-26T11:45:33.679Z,14.97
2017-07-26T11:48:01.335Z,14.91
2017-07-26T11:50:28.983Z,14.90
2017-07-26T11:52:56.629Z,14.90
2017-07-26T11:55:24.367Z,14.90
2017-07-26T11:57:52.010Z,14.92
2017-07-26T12:00:19.663Z,14.92
2017-07-26T12:02:47.303Z,14.93
2017-07-26T12:05:14.943Z,14.95
2017-07-26T12:07:42.659Z,15.00
2017-07-26T12:10:10.387Z,15.21
2017-07-26T12:12:38.026Z,15.32
2017-07-26T12:15:05.671Z,15.42
2017-07-26T12:17:34.060Z,15.40
2017-07-26T12:20:01.767Z,15.38
2017-07-26T12:22:29.410Z,15.40
2017-07-26T12:24:57.059Z,15.55
2017-07-26T12:27:24.675Z,15.61
2017-07-26T12:29:52.402Z,15.60
2017-07-26T12:32:19.990Z,15.67
2017-07-26T12:34:47.626Z,15.70
2017-07-26T12:37:15.261Z,15.68
2017-07-26T12:39:42.932Z,15.66
2017-07-26T12:42:10.905Z,15.67
2017-07-26T12:44:38.555Z,15.67
2017-07-26T12:47:06.194Z,15.74
2017-07-26T12:49:33.927Z,15.75
2017-07-26T12:52:01.551Z,15.72
2017-07-26T12:54:29.200Z,15.73
2017-07-26T12:56:56.938Z,15.70
2017-07-26T12:59:24.603Z,15.68
2017-07-26T13:01:52.256Z,15.69
2017-07-26T13:04:19.899Z,15.64
2017-07-26T13:06:47.562Z,15.59
2017-07-26T13:09:15.339Z,15.64
2017-07-26T13:11:43.012Z,15.70
2017-07-26T13:14:10.640Z,15.69
2017-07-26T13:16:38.280Z,15.67
2017-07-26T13:19:05.923Z,15.68
2017-07-26T13:21:33.574Z,15.74
2017-07-26T13:24:01.222Z,15.70
2017-07-26T13:26:28.899Z,15.69
2017-07-26T13:28:56.512Z,15.68
2017-07-26T13:31:24.205Z,15.73
2017-07-26T13:33:52.609Z,15.69
2017-07-26T13:36:20.329Z,15.63
2017-07-26T13:38:48.092Z,15.64
2017-07-26T13:41:15.762Z,15.67
2017-07-26T13:43:43.435Z,15.58
2017-07-26T13:46:11.113Z,15.64
2017-07-26T13:48:39.747Z,15.62
2017-07-26T13:51:07.448Z,15.63
2017-07-26T13:53:35.107Z,15.56
2017-07-26T13:56:02.761Z,15.62
2017-07-26T13:58:30.410Z,15.64
2017-07-26T14:00:58.044Z,15.59
2017-07-26T14:03:25.722Z,15.63
2017-07-26T14:05:53.384Z,15.70
2017-07-26T14:08:21.111Z,15.74
2017-07-26T14:10:48.772Z,15.67
2017-07-26T14:13:16.433Z,15.69
2017-07-26T14:15:44.090Z,15.65
2017-07-26T14:18:11.732Z,15.62
2017-07-26T14:20:39.410Z,15.59
2017-07-26T14:23:07.097Z,15.59
2017-07-26T14:25:34.752Z,15.56
2017-07-26T14:28:02.433Z,15.55
2017-07-26T14:30:30.073Z,15.50
2017-07-26T14:32:57.747Z,15.50
2017-07-26T14:35:25.361Z,15.46
2017-07-26T14:37:53.019Z,15.44
2017-07-26T14:40:20.653Z,15.45
2017-07-26T14:42:48.919Z,15.42
2017-07-26T14:45:16.545Z,15.40
2017-07-26T14:47:44.182Z,15.44
2017-07-26T14:50:11.819Z,15.46
2017-07-26T14:52:39.498Z,15.52
2017-07-26T14:55:08.645Z,15.53
2017-07-26T14:57:36.354Z,15.55
2017-07-26T15:00:03.981Z,15.51
2017-07-26T15:02:32.294Z,15.46
2017-07-26T15:04:59.951Z,15.43
2017-07-26T15:07:27.855Z,15.43
2017-07-26T15:09:55.635Z,15.38
2017-07-26T15:12:23.377Z,15.37
2017-07-26T15:14:51.077Z,15.41
2017-07-26T15:17:18.766Z,15.36
2017-07-26T15:19:46.385Z,15.35
2017-07-26T15:22:14.034Z,15.29
2017-07-26T15:24:42.410Z,15.29
2017-07-26T15:27:10.077Z,15.24
2017-07-26T15:29:37.707Z,15.24
2017-07-26T15:32:05.374Z,15.23
2017-07-26T15:34:33.137Z,15.24
2017-07-26T15:37:00.797Z,15.21
2017-07-26T15:39:28.533Z,15.26
2017-07-26T15:41:56.208Z,15.24
2017-07-26T15:44:23.853Z,15.21
2017-07-26T15:46:52.209Z,15.20
2017-07-26T15:49:20.272Z,15.23
2017-07-26T15:51:47.919Z,15.22
2017-07-26T15:54:15.587Z,15.23
2017-07-26T15:56:43.311Z,15.23
2017-07-26T15:59:10.995Z,15.21
2017-07-26T16:01:38.694Z,15.22
2017-07-26T16:04:06.529Z,15.21
2017-07-26T16:06:34.249Z,15.24
2017-07-26T16:09:01.954Z,15.23
2017-07-26T16:11:29.610Z,15.20
2017-07-26T16:13:57.231Z,15.22
2017-07-26T16:16:24.871Z,15.25
2017-07-26T16:18:52.559Z,15.26
2017-07-26T16:21:20.186Z,15.27
2017-07-26T16:23:47.814Z,15.21
2017-07-26T16:26:15.444Z,15.22
2017-07-26T16:28:43.097Z,15.19
2017-07-26T16:31:10.721Z,15.15
2017-07-26T16:33:38.426Z,15.18
2017-07-26T16:36:06.089Z,15.19
2017-07-26T16:38:33.778Z,15.15
2017-07-26T16:41:01.508Z,15.16
2017-07-26T16:43:29.167Z,15.13
2017-07-26T16:45:56.828Z,15.12
2017-07-26T16:48:24.494Z,15.14
2017-07-26T16:50:52.160Z,15.12
2017-07-26T16:53:19.923Z,15.13
2017-07-26T16:55:47.580Z,15.13
2017-07-26T16:58:15.230Z,15.11
2017-07-26T17:00:42.866Z,15.12
2017-07-26T17:03:10.549Z,15.09
2017-07-26T17:05:38.182Z,15.07
2017-07-26T17:08:05.851Z,15.03
2017-07-26T17:10:33.518Z,15.01
2017-07-26T17:13:01.179Z,15.01
2017-07-26T17:15:28.881Z,15.00
2017-07-26T17:17:56.736Z,14.99
2017-07-26T17:20:24.378Z,14.97
2017-07-26T17:22:53.514Z,14.97
2017-07-26T17:25:22.466Z,14.96
2017-07-26T17:27:50.211Z,14.95
2017-07-26T17:30:17.854Z,14.94
2017-07-26T17:32:45.516Z,14.92
2017-07-26T17:35:13.157Z,14.93
2017-07-26T17:37:40.852Z,14.93
2017-07-26T17:40:08.536Z,14.89
2017-07-26T17:42:36.156Z,14.88
2017-07-26T17:45:04.367Z,14.87
2017-07-26T17:47:32.006Z,14.84
2017-07-26T17:49:59.815Z,14.83
2017-07-26T17:52:27.438Z,14.82
2017-07-26T17:54:55.239Z,14.81
2017-07-26T17:57:22.853Z,14.83
2017-07-26T17:59:50.490Z,14.80
2017-07-26T18:02:18.123Z,14.77
2017-07-26T18:04:45.820Z,14.78
2017-07-26T18:07:13.447Z,14.77
2017-07-26T18:09:41.246Z,14.76
2017-07-26T18:12:09.549Z,14.75
2017-07-26T18:14:37.961Z,14.78
2017-07-26T18:17:05.599Z,14.74
2017-07-26T18:19:33.276Z,14.73
2017-07-26T18:22:01.647Z,14.70
2017-07-26T18:24:29.315Z,14.69
2017-07-26T18:26:56.944Z,14.70
2017-07-26T18:29:26.006Z,14.70
2017-07-26T18:31:53.634Z,14.70
2017-07-26T18:34:21.308Z,14.70
2017-07-26T18:36:48.961Z,14.70
2017-07-26T18:39:16.647Z,14.70
2017-07-26T18:41:44.289Z,14.68
2017-07-26T18:44:11.978Z,14.71
2017-07-26T18:46:39.655Z,14.71
2017-07-26T18:49:07.345Z,14.74
2017-07-26T18:51:35.015Z,14.74
2017-07-26T18:54:02.681Z,14.74
2017-07-26T18:56:30.343Z,14.74
2017-07-26T18:58:58.375Z,14.74
2017-07-26T19:01:26.095Z,14.75
2017-07-26T19:03:53.743Z,14.75
2017-07-26T19:06:21.392Z,14.74
2017-07-26T19:08:49.033Z,14.75
2017-07-26T19:11:16.708Z,14.76
2017-07-26T19:13:44.497Z,14.77
2017-07-26T19:16:12.185Z,14.77
2017-07-26T19:18:39.950Z,14.75
2017-07-26T19:21:07.697Z,14.75
2017-07-26T19:23:35.336Z,14.75
2017-07-26T19:26:02.993Z,14.76
2017-07-26T19:28:31.097Z,14.76
2017-07-26T19:30:58.776Z,14.77
2017-07-26T19:33:26.472Z,14.76
2017-07-26T19:35:54.305Z,14.76
2017-07-26T19:38:21.945Z,14.77
2017-07-26T19:40:49.823Z,14.76
2017-07-26T19:43:18.495Z,14.76
2017-07-26T19:45:46.246Z,14.76
2017-07-26T19:48:13.897Z,14.77
2017-07-26T19:50:41.567Z,14.75
2017-07-26T19:53:09.389Z,14.76
2017-07-26T19:55:37.096Z,14.75
2017-07-26T19:58:04.747Z,14.74
2017-07-26T20:00:32.478Z,14.74
2017-07-26T20:03:00.104Z,14.73
2017-07-26T20:05:27.961Z,14.73
2017-07-26T20:07:55.588Z,14.70
2017-07-26T20:10:23.583Z,14.74
2017-07-26T20:12:51.299Z,14.74
2017-07-26T20:15:18.980Z,14.74
2017-07-26T20:17:46.623Z,14.73
2017-07-26T20:20:14.244Z,14.75
2017-07-26T20:22:42.049Z,14.74
2017-07-26T20:25:09.735Z,14.72
2017-07-26T20:27:37.830Z,14.71
2017-07-26T20:30:05.581Z,14.72
2017-07-26T20:32:33.289Z,14.71
2017-07-26T20:35:01.840Z,14.73
2017-07-26T20:37:29.491Z,14.71
2017-07-26T20:39:57.181Z,14.71
2017-07-26T20:42:24.822Z,14.72
2017-07-26T20:44:52.761Z,14.69
2017-07-26T20:47:20.485Z,14.72
2017-07-26T20:49:48.120Z,14.71
2017-07-26T20:52:15.780Z,14.70
2017-07-26T20:54:43.431Z,14.69
2017-07-26T20:57:11.076Z,14.71
2017-07-26T20:59:38.704Z,14.71
2017-07-26T21:02:06.765Z,14.71
2017-07-26T21:04:34.397Z,14.72
2017-07-26T21:07:02.035Z,14.71
2017-07-26T21:09:29.697Z,14.71
2017-07-26T21:11:57.348Z,14.72
2017-07-26T21:14:25.515Z,14.71
2017-07-26T21:16:53.247Z,14.72
2017-07-26T21:19:20.864Z,14.73
2017-07-26T21:21:49.263Z,14.72
2017-07-26T21:24:17.537Z,14.72
2017-07-26T21:26:45.268Z,14.71
2017-07-26T21:29:12.896Z,14.71
2017-07-26T21:31:40.877Z,14.72
2017-07-26T21:34:08.550Z,14.73
2017-07-26T21:36:36.197Z,14.71
2017-07-26T21:39:03.842Z,14.71
2017-07-26T21:41:31.621Z,14.72
2017-07-26T21:43:59.280Z,14.71
2017-07-26T21:46:26.939Z,14.71
2017-07-26T21:48:54.779Z,14.71
2017-07-26T21:51:23.154Z,14.71
2017-07-26T21:53:50.773Z,14.72
2017-07-26T21:56:18.570Z,14.72
2017-07-26T21:58:46.197Z,14.72
2017-07-26T22:01:13.830Z,14.70
2017-07-26T22:03:41.483Z,14.69
2017-07-26T22:06:09.089Z,14.72
2017-07-26T22:08:37.104Z,14.72
2017-07-26T22:11:04.755Z,14.74
2017-07-26T22:13:32.370Z,14.75
2017-07-26T22:16:00.028Z,14.76
2017-07-26T22:18:27.708Z,14.76
2017-07-26T22:20:55.727Z,14.77
2017-07-26T22:23:23.366Z,14.78
2017-07-26T22:25:51.341Z,14.80
2017-07-26T22:28:18.981Z,14.80
2017-07-26T22:30:46.599Z,14.78
2017-07-26T22:33:14.284Z,14.75
2017-07-26T22:35:41.917Z,14.73
2017-07-26T22:38:09.567Z,14.72
2017-07-26T22:40:37.359Z,14.72
2017-07-26T22:43:05.289Z,14.73
2017-07-26T22:45:32.947Z,14.72
2017-07-26T22:48:00.581Z,14.72
2017-07-26T22:50:28.213Z,14.72
2017-07-26T22:52:55.822Z,14.72
2017-07-26T22:55:23.485Z,14.73
2017-07-26T22:57:51.096Z,14.75
2017-07-26T23:00:19.022Z,14.77
2017-07-26T23:02:46.659Z,14.78
2017-07-26T23:05:14.281Z,14.78
2017-07-26T23:07:42.042Z,14.79
2017-07-26T23:10:09.737Z,14.80
2017-07-26T23:12:37.397Z,14.81
2017-07-26T23:15:05.044Z,14.80
2017-07-26T23:17:33.102Z,14.82
2017-07-26T23:20:00.734Z,14.82
2017-07-26T23:22:28.366Z,14.81
2017-07-26T23:24:56.081Z,14.84
2017-07-26T23:27:26.717Z,14.85
2017-07-26T23:29:54.394Z,14.85
2017-07-26T23:32:22.050Z,14.84
2017-07-26T23:34:50.081Z,14.84
2017-07-26T23:37:17.725Z,14.85
2017-07-26T23:39:45.348Z,14.86
2017-07-26T23:42:13.010Z,14.86
2017-07-26T23:44:40.645Z,14.84
2017-07-26T23:47:08.285Z,14.86
2017-07-26T23:49:35.919Z,14.86
2017-07-26T23:52:03.824Z,14.86
2017-07-26T23:54:31.473Z,14.86
2017-07-26T23:56:59.131Z,14.83
2017-07-26T23:59:26.783Z,14.85
